DLH8NK EDDF-EDDM
Flight info
| Callsign | DLH8NK |
|---|---|
| Flight time | N/A |
| Altitude | 23000 |
| Route | CINDY6F CINDY Z74 HAREM T104 ROKIL ROKIL1B |
| Aircraft | A20N/M-SDE2E3FGHIRWXY/LB1 |
Departure
| Time | 2026-05-07 03:49 |
|---|---|
| Airport | Frankfurt Main Airport (EDDF) |
Arrival
| Time | N/A |
|---|---|
| Airport | Munich Airport (EDDM) |
| Time | Latitude | Longitude | Altitude | Speed | Heading |
|---|---|---|---|---|---|
| 2026-05-07 03:24 | 50.04583 | 8.56612 | 345 ft | 0 kts | 114° |
| 2026-05-07 03:37 | 50.04587 | 8.56599 | 349 ft | 4 kts | 115° |
| 2026-05-07 03:37 | 50.04599 | 8.56562 | 358 ft | 4 kts | 122° |
| 2026-05-07 03:37 | 50.04615 | 8.56528 | 355 ft | 4 kts | 135° |
| 2026-05-07 03:38 | 50.04635 | 8.56506 | 353 ft | 4 kts | 181° |
| 2026-05-07 03:38 | 50.04647 | 8.56509 | 356 ft | 1 kts | 205° |
| 2026-05-07 03:38 | 50.04648 | 8.56509 | 356 ft | 0 kts | 205° |
| 2026-05-07 03:42 | 50.04644 | 8.56507 | 355 ft | 2 kts | 205° |
| 2026-05-07 03:42 | 50.04601 | 8.56477 | 351 ft | 10 kts | 204° |
| 2026-05-07 03:42 | 50.04527 | 8.56408 | 353 ft | 14 kts | 231° |
| 2026-05-07 03:43 | 50.04486 | 8.56258 | 345 ft | 16 kts | 250° |
| 2026-05-07 03:43 | 50.04446 | 8.56091 | 345 ft | 13 kts | 250° |
| 2026-05-07 03:43 | 50.04372 | 8.56041 | 352 ft | 14 kts | 163° |
| 2026-05-07 03:43 | 50.04308 | 8.56077 | 352 ft | 10 kts | 153° |
| 2026-05-07 03:44 | 50.04277 | 8.56179 | 349 ft | 12 kts | 130° |
| 2026-05-07 03:44 | 50.04192 | 8.56233 | 351 ft | 15 kts | 160° |
| 2026-05-07 03:44 | 50.04137 | 8.56305 | 345 ft | 11 kts | 91° |
| 2026-05-07 03:44 | 50.04165 | 8.56437 | 347 ft | 15 kts | 70° |
| 2026-05-07 03:45 | 50.04205 | 8.56603 | 349 ft | 18 kts | 69° |
| 2026-05-07 03:45 | 50.04251 | 8.56796 | 348 ft | 20 kts | 69° |
| 2026-05-07 03:45 | 50.04303 | 8.57009 | 353 ft | 22 kts | 69° |
| 2026-05-07 03:45 | 50.04359 | 8.57245 | 352 ft | 24 kts | 70° |
| 2026-05-07 03:46 | 50.04419 | 8.57493 | 347 ft | 26 kts | 69° |
| 2026-05-07 03:46 | 50.04483 | 8.57762 | 350 ft | 27 kts | 70° |
| 2026-05-07 03:46 | 50.04544 | 8.58021 | 354 ft | 19 kts | 69° |
| 2026-05-07 03:46 | 50.04592 | 8.58219 | 349 ft | 20 kts | 69° |
| 2026-05-07 03:47 | 50.04640 | 8.58428 | 346 ft | 18 kts | 70° |
| 2026-05-07 03:47 | 50.04630 | 8.58569 | 352 ft | 13 kts | 151° |
| 2026-05-07 03:47 | 50.04550 | 8.58618 | 354 ft | 13 kts | 159° |
| 2026-05-07 03:47 | 50.04485 | 8.58600 | 355 ft | 8 kts | 250° |
| 2026-05-07 03:48 | 50.04484 | 8.58592 | 351 ft | 0 kts | 253° |
| 2026-05-07 03:48 | 50.04433 | 8.58356 | 353 ft | 65 kts | 250° |
| 2026-05-07 03:48 | 50.04178 | 8.57289 | 352 ft | 141 kts | 250° |
| 2026-05-07 03:48 | 50.03795 | 8.55711 | 901 ft | 158 kts | 250° |
| 2026-05-07 03:49 | 50.03398 | 8.54100 | 1865 ft | 161 kts | 253° |
| 2026-05-07 03:49 | 50.02998 | 8.52418 | 2650 ft | 174 kts | 253° |
| 2026-05-07 03:49 | 50.02503 | 8.50593 | 3199 ft | 196 kts | 238° |
| 2026-05-07 03:49 | 50.01382 | 8.49227 | 3686 ft | 220 kts | 202° |
| 2026-05-07 03:50 | 49.99846 | 8.48744 | 4596 ft | 227 kts | 180° |
| 2026-05-07 03:50 | 49.98327 | 8.49366 | 5561 ft | 230 kts | 151° |
| 2026-05-07 03:50 | 49.97167 | 8.51102 | 6423 ft | 238 kts | 120° |
| 2026-05-07 03:50 | 49.96372 | 8.53351 | 7249 ft | 243 kts | 118° |
| 2026-05-07 03:51 | 49.95532 | 8.55756 | 7807 ft | 264 kts | 117° |
| 2026-05-07 03:51 | 49.94643 | 8.58395 | 8282 ft | 287 kts | 111° |
| 2026-05-07 03:51 | 49.94083 | 8.61411 | 9029 ft | 294 kts | 96° |
| 2026-05-07 03:51 | 49.93928 | 8.64597 | 9950 ft | 298 kts | 90° |
| 2026-05-07 03:52 | 49.93666 | 8.67855 | 10535 ft | 317 kts | 105° |
| 2026-05-07 03:52 | 49.92617 | 8.70998 | 10867 ft | 342 kts | 128° |
| 2026-05-07 03:52 | 49.90822 | 8.73525 | 11411 ft | 354 kts | 143° |
| 2026-05-07 03:52 | 49.88924 | 8.75984 | 12290 ft | 356 kts | 135° |
| 2026-05-07 03:53 | 49.87343 | 8.78939 | 13192 ft | 358 kts | 122° |
| 2026-05-07 03:53 | 49.86057 | 8.82232 | 14008 ft | 361 kts | 120° |
| 2026-05-07 03:53 | 49.84784 | 8.85641 | 14764 ft | 364 kts | 119° |
| 2026-05-07 03:53 | 49.83527 | 8.89074 | 15539 ft | 367 kts | 118° |
| 2026-05-07 03:54 | 49.82269 | 8.92538 | 16295 ft | 371 kts | 118° |
| 2026-05-07 03:54 | 49.81000 | 8.96035 | 17024 ft | 375 kts | 118° |
| 2026-05-07 03:54 | 49.79735 | 8.99516 | 17739 ft | 378 kts | 118° |
| 2026-05-07 03:54 | 49.78437 | 9.03078 | 18413 ft | 382 kts | 119° |
| 2026-05-07 03:55 | 49.77137 | 9.06685 | 19030 ft | 386 kts | 116° |
| 2026-05-07 03:55 | 49.76178 | 9.10567 | 19634 ft | 387 kts | 104° |
| 2026-05-07 03:55 | 49.75427 | 9.14582 | 20272 ft | 390 kts | 108° |
| 2026-05-07 03:55 | 49.74347 | 9.18462 | 20836 ft | 396 kts | 118° |
| 2026-05-07 03:56 | 49.72833 | 9.22040 | 21419 ft | 401 kts | 128° |
| 2026-05-07 03:56 | 49.71000 | 9.25298 | 22025 ft | 404 kts | 131° |
| 2026-05-07 03:56 | 49.69132 | 9.28576 | 22625 ft | 406 kts | 131° |
| 2026-05-07 03:56 | 49.67262 | 9.31872 | 22867 ft | 413 kts | 131° |
| 2026-05-07 03:57 | 49.65333 | 9.35277 | 22902 ft | 429 kts | 131° |
| 2026-05-07 03:57 | 49.63329 | 9.38811 | 22900 ft | 445 kts | 131° |
| 2026-05-07 03:57 | 49.61279 | 9.42421 | 22907 ft | 460 kts | 131° |
| 2026-05-07 03:57 | 49.59141 | 9.46181 | 22908 ft | 471 kts | 131° |
| 2026-05-07 03:58 | 49.56972 | 9.49994 | 22900 ft | 471 kts | 131° |
| 2026-05-07 03:58 | 49.54810 | 9.53787 | 22900 ft | 471 kts | 131° |
| 2026-05-07 03:58 | 49.52650 | 9.57572 | 22892 ft | 472 kts | 131° |
| 2026-05-07 03:58 | 49.50486 | 9.61360 | 22892 ft | 470 kts | 131° |
| 2026-05-07 03:59 | 49.48320 | 9.65143 | 22892 ft | 470 kts | 131° |
| 2026-05-07 03:59 | 49.46149 | 9.68930 | 22889 ft | 472 kts | 131° |
| 2026-05-07 03:59 | 49.43985 | 9.72700 | 22887 ft | 471 kts | 131° |
| 2026-05-07 03:59 | 49.41834 | 9.76441 | 22886 ft | 472 kts | 131° |
| 2026-05-07 04:00 | 49.39661 | 9.80215 | 22889 ft | 470 kts | 131° |
| 2026-05-07 04:00 | 49.37495 | 9.83970 | 22881 ft | 471 kts | 131° |
| 2026-05-07 04:00 | 49.35330 | 9.87719 | 22882 ft | 465 kts | 131° |
| 2026-05-07 04:00 | 49.33179 | 9.91428 | 22882 ft | 465 kts | 132° |
| 2026-05-07 04:01 | 49.31025 | 9.95137 | 22891 ft | 466 kts | 132° |
| 2026-05-07 04:01 | 49.28866 | 9.98848 | 22884 ft | 467 kts | 132° |
| 2026-05-07 04:01 | 49.26731 | 10.02516 | 22886 ft | 467 kts | 132° |
| 2026-05-07 04:01 | 49.24572 | 10.06218 | 22889 ft | 467 kts | 132° |
| 2026-05-07 04:02 | 49.22409 | 10.09923 | 22890 ft | 467 kts | 132° |
| 2026-05-07 04:02 | 49.20246 | 10.13624 | 22903 ft | 467 kts | 132° |
| 2026-05-07 04:02 | 49.18083 | 10.17320 | 22913 ft | 467 kts | 132° |
| 2026-05-07 04:02 | 49.15919 | 10.21019 | 22916 ft | 467 kts | 132° |
| 2026-05-07 04:03 | 49.13770 | 10.24701 | 22913 ft | 458 kts | 134° |
| 2026-05-07 04:03 | 49.11613 | 10.28262 | 22925 ft | 457 kts | 136° |
| 2026-05-07 04:03 | 49.09411 | 10.31782 | 22927 ft | 458 kts | 136° |
| 2026-05-07 04:03 | 49.07205 | 10.35288 | 22927 ft | 458 kts | 136° |
| 2026-05-07 04:04 | 49.04998 | 10.38802 | 22942 ft | 459 kts | 136° |
| 2026-05-07 04:04 | 49.02784 | 10.42337 | 22936 ft | 459 kts | 136° |
| 2026-05-07 04:04 | 49.00613 | 10.45808 | 22943 ft | 459 kts | 136° |
| 2026-05-07 04:04 | 48.98411 | 10.49326 | 22941 ft | 459 kts | 136° |
| 2026-05-07 04:05 | 48.96206 | 10.52840 | 22943 ft | 459 kts | 136° |
| 2026-05-07 04:05 | 48.93996 | 10.56356 | 22944 ft | 459 kts | 136° |
| 2026-05-07 04:05 | 48.91805 | 10.59845 | 22946 ft | 447 kts | 137° |
| 2026-05-07 04:05 | 48.89719 | 10.63172 | 22944 ft | 424 kts | 137° |
| 2026-05-07 04:06 | 48.87726 | 10.66344 | 22946 ft | 402 kts | 137° |
| 2026-05-07 04:06 | 48.85841 | 10.69336 | 22949 ft | 383 kts | 137° |
| 2026-05-07 04:06 | 48.84002 | 10.72241 | 22955 ft | 384 kts | 137° |
| 2026-05-07 04:06 | 48.82154 | 10.75148 | 22943 ft | 387 kts | 137° |
| 2026-05-07 04:07 | 48.80297 | 10.78074 | 22945 ft | 386 kts | 137° |
| 2026-05-07 04:07 | 48.78435 | 10.81002 | 22943 ft | 385 kts | 138° |
| 2026-05-07 04:07 | 48.76567 | 10.83931 | 22764 ft | 385 kts | 138° |
| 2026-05-07 04:07 | 48.74705 | 10.86845 | 22355 ft | 385 kts | 138° |
| 2026-05-07 04:08 | 48.72839 | 10.89765 | 21806 ft | 383 kts | 138° |
| 2026-05-07 04:08 | 48.70996 | 10.92649 | 21266 ft | 378 kts | 138° |
| 2026-05-07 04:08 | 48.69176 | 10.95491 | 20730 ft | 376 kts | 137° |
| 2026-05-07 04:08 | 48.67339 | 10.98352 | 20219 ft | 381 kts | 138° |
| 2026-05-07 04:09 | 48.65489 | 11.01229 | 19711 ft | 380 kts | 138° |
| 2026-05-07 04:09 | 48.63652 | 11.04087 | 19212 ft | 376 kts | 138° |
| 2026-05-07 04:09 | 48.61836 | 11.06909 | 18663 ft | 374 kts | 138° |
| 2026-05-07 04:09 | 48.60031 | 11.09707 | 18013 ft | 375 kts | 138° |
| 2026-05-07 04:10 | 48.58175 | 11.12462 | 17264 ft | 373 kts | 143° |
| 2026-05-07 04:10 | 48.56114 | 11.14844 | 16469 ft | 372 kts | 150° |
| 2026-05-07 04:10 | 48.54108 | 11.17337 | 15705 ft | 379 kts | 135° |
| 2026-05-07 04:10 | 48.52667 | 11.20698 | 14947 ft | 386 kts | 116° |
| 2026-05-07 04:11 | 48.51965 | 11.24624 | 14218 ft | 392 kts | 98° |
| 2026-05-07 04:11 | 48.52065 | 11.28704 | 13475 ft | 396 kts | 81° |
| 2026-05-07 04:11 | 48.52721 | 11.32723 | 12869 ft | 392 kts | 75° |
| 2026-05-07 04:11 | 48.53483 | 11.36632 | 12575 ft | 380 kts | 75° |
| 2026-05-07 04:12 | 48.54172 | 11.40403 | 12410 ft | 365 kts | 76° |
| 2026-05-07 04:12 | 48.54776 | 11.44062 | 12174 ft | 354 kts | 78° |
| 2026-05-07 04:12 | 48.55317 | 11.47623 | 11696 ft | 351 kts | 78° |
| 2026-05-07 04:12 | 48.55837 | 11.51230 | 11184 ft | 350 kts | 79° |
| 2026-05-07 04:13 | 48.56341 | 11.54811 | 10704 ft | 348 kts | 79° |
| 2026-05-07 04:13 | 48.56639 | 11.57189 | 10382 ft | 347 kts | 84° |
| 2026-05-07 04:13 | 48.56623 | 11.60797 | 9895 ft | 342 kts | 101° |
| 2026-05-07 04:13 | 48.56006 | 11.64238 | 9379 ft | 338 kts | 112° |
| 2026-05-07 04:14 | 48.55229 | 11.67569 | 8897 ft | 336 kts | 112° |
| 2026-05-07 04:14 | 48.54463 | 11.70888 | 8395 ft | 334 kts | 112° |
| 2026-05-07 04:14 | 48.53702 | 11.74196 | 7917 ft | 332 kts | 111° |
| 2026-05-07 04:14 | 48.52947 | 11.77476 | 7452 ft | 330 kts | 111° |
| 2026-05-07 04:15 | 48.52194 | 11.80744 | 6967 ft | 329 kts | 111° |
| 2026-05-07 04:15 | 48.51440 | 11.84009 | 6500 ft | 328 kts | 111° |
| 2026-05-07 04:15 | 48.50688 | 11.87260 | 6037 ft | 327 kts | 111° |
| 2026-05-07 04:15 | 48.49944 | 11.90474 | 5603 ft | 323 kts | 111° |
| 2026-05-07 04:16 | 48.49214 | 11.93621 | 5186 ft | 320 kts | 111° |
| 2026-05-07 04:16 | 48.48484 | 11.96762 | 4985 ft | 312 kts | 111° |
| 2026-05-07 04:16 | 48.47783 | 11.99782 | 4940 ft | 298 kts | 111° |
| 2026-05-07 04:16 | 48.46874 | 12.02447 | 4940 ft | 279 kts | 134° |
| 2026-05-07 04:17 | 48.45340 | 12.04194 | 4946 ft | 276 kts | 161° |
| 2026-05-07 04:17 | 48.43551 | 12.05204 | 4844 ft | 272 kts | 171° |
| 2026-05-07 04:17 | 48.41704 | 12.05476 | 4536 ft | 265 kts | 185° |
| 2026-05-07 04:17 | 48.40002 | 12.04818 | 4191 ft | 248 kts | 219° |
| 2026-05-07 04:18 | 48.38881 | 12.03018 | 4064 ft | 228 kts | 243° |
| 2026-05-07 04:18 | 48.38292 | 12.00878 | 3906 ft | 218 kts | 256° |
| 2026-05-07 04:18 | 48.37988 | 11.98677 | 3663 ft | 212 kts | 262° |
| 2026-05-07 04:18 | 48.37799 | 11.96576 | 3398 ft | 193 kts | 263° |
| 2026-05-07 04:19 | 48.37648 | 11.94660 | 3147 ft | 176 kts | 263° |
| 2026-05-07 04:19 | 48.37517 | 11.92951 | 2956 ft | 156 kts | 263° |
| 2026-05-07 04:19 | 48.37402 | 11.91450 | 2768 ft | 133 kts | 263° |
| 2026-05-07 04:19 | 48.37303 | 11.90157 | 2560 ft | 120 kts | 262° |
| 2026-05-07 04:20 | 48.37202 | 11.88841 | 2393 ft | 128 kts | 262° |
| 2026-05-07 04:20 | 48.37104 | 11.87513 | 2210 ft | 129 kts | 262° |
| 2026-05-07 04:20 | 48.37002 | 11.86150 | 2036 ft | 132 kts | 262° |
| 2026-05-07 04:21 | 48.36776 | 11.83400 | 1694 ft | 131 kts | 262° |
| 2026-05-07 04:21 | 48.36683 | 11.82044 | 1491 ft | 129 kts | 262° |
| 2026-05-07 04:21 | 48.36592 | 11.80879 | 1461 ft | 88 kts | 264° |
| 2026-05-07 04:21 | 48.36565 | 11.80468 | 1466 ft | 57 kts | 263° |